createdAt,value
2022-09-21T00:04:04.631Z,64.5
2022-09-21T00:14:04.776Z,64.5
2022-09-21T00:24:04.594Z,64.5
2022-09-21T00:34:04.658Z,64
2022-09-21T00:44:04.583Z,64
2022-09-21T00:54:04.642Z,64
2022-09-21T01:04:04.555Z,64
2022-09-21T01:14:05.372Z,64
2022-09-21T01:24:04.559Z,64
2022-09-21T01:34:04.641Z,64
2022-09-21T01:44:04.749Z,64
2022-09-21T01:54:04.621Z,64
2022-09-21T02:04:04.766Z,64
2022-09-21T02:14:04.676Z,64
2022-09-21T02:24:04.785Z,64
2022-09-21T02:34:04.626Z,64
2022-09-21T02:44:04.859Z,63.5
2022-09-21T02:54:04.650Z,63.5
2022-09-21T03:04:04.752Z,63.5
2022-09-21T03:14:04.933Z,63.5
2022-09-21T03:24:04.750Z,63.5
2022-09-21T03:34:04.819Z,63.5
2022-09-21T03:44:04.777Z,63.5
2022-09-21T03:54:04.845Z,63.5
2022-09-21T04:04:04.774Z,63.5
2022-09-21T04:14:04.810Z,63.5
2022-09-21T04:24:04.730Z,63.5
2022-09-21T04:34:04.831Z,63.5
2022-09-21T04:44:05.006Z,63.5
2022-09-21T04:54:04.823Z,63.5
2022-09-21T05:04:04.943Z,63.5
2022-09-21T05:14:04.798Z,63.5
2022-09-21T05:24:04.935Z,63.5
2022-09-21T05:34:04.864Z,63.5
2022-09-21T05:44:04.914Z,63.5
2022-09-21T05:54:04.994Z,63.5
2022-09-21T06:04:05.045Z,63
2022-09-21T06:14:05.172Z,63
2022-09-21T06:24:04.928Z,63
2022-09-21T06:34:05.088Z,63
2022-09-21T06:44:05.002Z,62.5
2022-09-21T06:54:04.980Z,62.5
2022-09-21T07:04:05.008Z,62.5
2022-09-21T07:14:05.066Z,62.5
2022-09-21T07:24:08.352Z,62.5
2022-09-21T07:34:04.981Z,62.5
2022-09-21T07:44:05.284Z,62.5
2022-09-21T07:54:04.954Z,62.5
2022-09-21T08:04:05.185Z,62
2022-09-21T08:14:05.242Z,61.5
2022-09-21T08:24:05.097Z,61
2022-09-21T08:34:05.151Z,61
2022-09-21T08:44:05.063Z,61
2022-09-21T08:54:05.210Z,61
2022-09-21T09:04:05.924Z,60.5
2022-09-21T09:14:05.187Z,60.5
2022-09-21T09:24:05.079Z,60
2022-09-21T09:34:05.279Z,59.5
2022-09-21T09:44:05.293Z,59.5
2022-09-21T09:54:09.610Z,60
2022-09-21T10:04:05.480Z,59.5
2022-09-21T10:14:05.946Z,58.5
2022-09-21T10:24:05.373Z,58
2022-09-21T10:34:05.215Z,58.5
2022-09-21T10:44:05.328Z,58
2022-09-21T10:54:05.330Z,58.5
2022-09-21T11:04:05.458Z,58.5
2022-09-21T11:14:05.202Z,58
2022-09-21T11:24:05.400Z,57.5
2022-09-21T11:34:05.368Z,56.5
2022-09-21T11:44:06.950Z,56.5
2022-09-21T11:54:05.211Z,57
2022-09-21T12:04:06.661Z,56
2022-09-21T12:14:06.836Z,57
2022-09-21T12:24:05.700Z,57
2022-09-21T12:34:05.624Z,57.5
2022-09-21T12:44:05.420Z,57.5
2022-09-21T12:54:05.599Z,56.5
2022-09-21T13:04:05.515Z,56.5
2022-09-21T13:14:05.486Z,57
2022-09-21T13:24:05.332Z,57
2022-09-21T13:34:05.662Z,57.5
2022-09-21T13:44:06.510Z,58
2022-09-21T13:54:05.638Z,58.5
2022-09-21T14:04:06.341Z,58.5
2022-09-21T14:14:05.422Z,58.5
2022-09-21T14:24:05.466Z,58
2022-09-21T14:34:05.419Z,58
2022-09-21T14:44:05.587Z,58
2022-09-21T14:54:05.517Z,58
2022-09-21T15:04:05.623Z,58
2022-09-21T15:14:05.430Z,58
2022-09-21T15:24:05.623Z,58
2022-09-21T15:34:05.420Z,58
2022-09-21T15:44:05.771Z,58
2022-09-21T15:54:05.516Z,58
2022-09-21T16:04:05.953Z,58
2022-09-21T16:14:06.089Z,58.5
2022-09-21T16:24:05.615Z,58
2022-09-21T16:34:05.625Z,57.5
2022-09-21T16:44:05.689Z,56.5
2022-09-21T16:54:05.731Z,54
2022-09-21T17:04:05.556Z,56
2022-09-21T17:14:05.632Z,56.5
2022-09-21T17:24:05.628Z,57
2022-09-21T17:34:05.609Z,57
2022-09-21T17:44:05.774Z,57
2022-09-21T17:54:05.665Z,57
2022-09-21T18:04:05.824Z,58
2022-09-21T18:14:05.612Z,58.5
2022-09-21T18:24:05.875Z,59.5
2022-09-21T18:34:07.404Z,60
2022-09-21T18:44:05.707Z,60
2022-09-21T18:54:05.625Z,60.5
2022-09-21T19:04:05.676Z,60.5
2022-09-21T19:14:05.747Z,60.5
2022-09-21T19:24:05.787Z,60.5
2022-09-21T19:34:05.755Z,60.5
2022-09-21T19:44:05.710Z,60.5
2022-09-21T19:54:05.834Z,60.5
2022-09-21T20:04:05.661Z,60.5
2022-09-21T20:14:05.748Z,60.5
2022-09-21T20:24:05.943Z,60.5
2022-09-21T20:34:05.812Z,60.5
2022-09-21T20:44:05.952Z,60.5
2022-09-21T20:54:05.915Z,60.5
2022-09-21T21:04:05.962Z,60.5
2022-09-21T21:14:05.750Z,60.5
2022-09-21T21:24:05.987Z,60.5
2022-09-21T21:34:05.725Z,60.5
2022-09-21T21:44:05.979Z,60.5
2022-09-21T21:54:05.967Z,60.5
2022-09-21T22:04:05.872Z,60.5
2022-09-21T22:14:05.955Z,60.5
2022-09-21T22:24:05.957Z,60.5
2022-09-21T22:34:05.921Z,60.5
2022-09-21T22:44:05.975Z,60.5
2022-09-21T22:54:06.073Z,60.5
2022-09-21T23:04:05.869Z,60.5
2022-09-21T23:14:05.934Z,60.5
2022-09-21T23:24:06.111Z,60.5
2022-09-21T23:34:05.894Z,60.5
2022-09-21T23:44:06.019Z,60.5
2022-09-21T23:54:06.016Z,60.5
